createdAt,value
2018-06-15T00:00:56.513Z,22.70
2018-06-15T00:03:25.214Z,21.93
2018-06-15T00:05:53.712Z,23.80
2018-06-15T00:08:22.205Z,25.83
2018-06-15T00:10:51.302Z,22.63
2018-06-15T00:13:19.807Z,20.63
2018-06-15T00:15:48.311Z,16.13
2018-06-15T00:18:16.856Z,21.67
2018-06-15T00:20:45.377Z,19.87
2018-06-15T00:23:13.878Z,19.27
2018-06-15T00:25:42.589Z,21.17
2018-06-15T00:28:11.234Z,17.83
2018-06-15T00:30:39.757Z,21.80
2018-06-15T00:33:08.264Z,15.50
2018-06-15T00:35:36.735Z,17.23
2018-06-15T00:38:05.251Z,17.43
2018-06-15T00:40:33.751Z,18.63
2018-06-15T00:43:02.378Z,20.03
2018-06-15T00:45:30.552Z,24.13
2018-06-15T00:47:59.047Z,20.10
2018-06-15T00:50:29.690Z,19.90
2018-06-15T00:52:58.180Z,19.37
2018-06-15T00:55:26.690Z,14.80
2018-06-15T00:57:55.200Z,17.93
2018-06-15T01:00:23.671Z,20.80
2018-06-15T01:02:52.214Z,17.87
2018-06-15T01:05:20.872Z,21.33
2018-06-15T01:07:49.561Z,16.57
2018-06-15T01:10:18.048Z,18.00
2018-06-15T01:12:46.645Z,15.37
2018-06-15T01:15:15.144Z,17.93
2018-06-15T01:17:43.656Z,20.47
2018-06-15T01:20:11.865Z,20.93
2018-06-15T01:22:40.356Z,17.60
2018-06-15T01:25:08.856Z,15.73
2018-06-15T01:27:37.369Z,15.70
2018-06-15T01:30:06.388Z,16.90
2018-06-15T01:32:34.843Z,16.90
2018-06-15T01:35:03.050Z,17.63
2018-06-15T01:37:31.569Z,16.67
2018-06-15T01:40:00.244Z,18.97
2018-06-15T01:42:28.771Z,16.80
2018-06-15T01:44:57.333Z,17.53
2018-06-15T01:47:25.504Z,20.40
2018-06-15T01:49:53.982Z,20.13
2018-06-15T01:52:22.510Z,22.73
2018-06-15T01:54:51.202Z,13.60
2018-06-15T01:57:19.909Z,18.93
2018-06-15T01:59:48.365Z,19.63
2018-06-15T02:02:17.241Z,18.17
2018-06-15T02:04:45.712Z,18.00
2018-06-15T02:07:14.217Z,23.97
2018-06-15T02:09:42.700Z,22.50
2018-06-15T02:12:11.358Z,18.03
2018-06-15T02:14:39.837Z,21.97
2018-06-15T02:17:08.343Z,19.47
2018-06-15T02:19:37.246Z,19.17
2018-06-15T02:22:05.737Z,22.70
2018-06-15T02:24:34.220Z,25.27
2018-06-15T02:27:02.709Z,22.67
2018-06-15T02:29:31.215Z,24.70
2018-06-15T02:31:59.717Z,20.27
2018-06-15T02:34:28.235Z,22.27
2018-06-15T02:36:56.757Z,17.13
2018-06-15T02:39:25.275Z,19.43
2018-06-15T02:41:54.080Z,17.90
2018-06-15T02:44:22.849Z,16.87
2018-06-15T02:46:51.410Z,19.73
2018-06-15T02:49:19.945Z,22.37
2018-06-15T02:51:48.507Z,23.57
2018-06-15T02:54:17.034Z,25.53
2018-06-15T02:56:45.561Z,21.77
2018-06-15T02:59:14.042Z,23.23
2018-06-15T03:01:42.525Z,22.00
2018-06-15T03:04:11.040Z,18.23
2018-06-15T03:06:39.527Z,19.00
2018-06-15T03:13:44.007Z,19.60
2018-06-15T03:16:12.488Z,21.67
2018-06-15T03:18:40.954Z,25.13
2018-06-15T03:21:09.453Z,24.87
2018-06-15T03:23:37.960Z,15.93
2018-06-15T03:26:06.302Z,21.67
2018-06-15T03:28:34.815Z,15.87
2018-06-15T03:31:03.357Z,14.80
2018-06-15T03:33:31.844Z,17.90
2018-06-15T03:36:00.324Z,15.07
2018-06-15T03:38:28.804Z,18.87
2018-06-15T03:40:57.249Z,26.03
2018-06-15T03:43:25.932Z,25.43
2018-06-15T03:45:54.442Z,20.00
2018-06-15T03:48:23.698Z,20.33
2018-06-15T03:50:52.278Z,17.80
2018-06-15T03:53:20.969Z,23.30
2018-06-15T03:55:49.495Z,22.00
2018-06-15T03:58:18.007Z,23.90
2018-06-15T04:00:46.179Z,19.20
2018-06-15T04:03:14.692Z,20.40
2018-06-15T04:05:43.164Z,22.70
2018-06-15T04:08:11.638Z,24.63
2018-06-15T04:10:40.233Z,22.33
2018-06-15T04:13:08.936Z,25.73
2018-06-15T04:15:37.404Z,26.03
2018-06-15T04:18:07.820Z,25.07
2018-06-15T04:20:37.834Z,21.67
2018-06-15T04:23:06.355Z,22.33
2018-06-15T04:25:34.833Z,27.80
2018-06-15T04:28:03.501Z,24.60
2018-06-15T04:30:32.672Z,25.40
2018-06-15T04:33:01.232Z,24.63
2018-06-15T04:35:29.773Z,26.90
2018-06-15T04:37:58.269Z,25.73
2018-06-15T04:40:26.840Z,28.20
2018-06-15T04:42:55.337Z,27.00
2018-06-15T04:45:23.865Z,23.80
2018-06-15T04:47:52.345Z,29.33
2018-06-15T04:50:20.907Z,27.23
2018-06-15T04:52:49.733Z,30.33
2018-06-15T04:55:18.277Z,30.03
2018-06-15T04:57:46.811Z,26.80
2018-06-15T05:00:15.291Z,30.20
2018-06-15T05:02:43.871Z,20.93
2018-06-15T05:05:12.338Z,24.53
2018-06-15T05:07:40.841Z,24.83
2018-06-15T05:10:09.377Z,16.57
2018-06-15T05:12:37.931Z,22.70
2018-06-15T05:15:06.518Z,25.07
2018-06-15T05:17:35.822Z,21.17
2018-06-15T05:20:04.758Z,24.37
2018-06-15T05:22:33.271Z,20.83
2018-06-15T05:25:01.865Z,23.40
2018-06-15T05:27:30.371Z,21.23
2018-06-15T05:29:59.049Z,23.50
2018-06-15T05:32:27.754Z,19.10
2018-06-15T05:34:56.259Z,22.07
2018-06-15T05:37:24.964Z,18.77
2018-06-15T05:39:53.611Z,18.30
2018-06-15T05:42:22.313Z,28.47
2018-06-15T05:44:51.113Z,31.50
2018-06-15T05:47:19.696Z,25.57
2018-06-15T05:49:48.233Z,22.07
2018-06-15T05:52:17.196Z,22.03
2018-06-15T05:54:45.690Z,20.80
2018-06-15T05:57:14.684Z,22.63
2018-06-15T05:59:43.658Z,19.97
2018-06-15T06:02:12.158Z,22.73
2018-06-15T06:04:40.735Z,28.97
2018-06-15T06:07:09.396Z,24.20
2018-06-15T06:09:37.966Z,20.70
2018-06-15T06:12:06.488Z,25.27
2018-06-15T06:14:35.054Z,19.40
2018-06-15T06:17:03.564Z,26.30
2018-06-15T06:19:32.238Z,30.07
2018-06-15T06:22:00.720Z,20.70
2018-06-15T06:24:29.229Z,23.67
2018-06-15T06:26:57.776Z,23.73
2018-06-15T06:29:26.279Z,20.60
2018-06-15T06:31:55.062Z,23.80
2018-06-15T06:34:24.489Z,26.20
2018-06-15T06:36:53.000Z,28.50
2018-06-15T06:39:21.487Z,17.27
2018-06-15T06:41:51.064Z,23.43
2018-06-15T06:44:19.638Z,25.97
2018-06-15T06:46:48.166Z,25.50
2018-06-15T06:49:16.678Z,27.03
2018-06-15T06:51:45.486Z,28.80
2018-06-15T06:54:13.976Z,29.80
2018-06-15T06:56:42.488Z,28.83
2018-06-15T06:59:11.112Z,21.27
2018-06-15T07:01:39.634Z,28.50
2018-06-15T07:04:08.584Z,29.50
2018-06-15T07:06:37.106Z,23.23
2018-06-15T07:09:07.194Z,27.20
2018-06-15T07:11:35.945Z,25.50
2018-06-15T07:14:04.517Z,24.83
2018-06-15T07:16:33.015Z,30.17
2018-06-15T07:19:01.568Z,27.83
2018-06-15T07:21:30.288Z,26.87
2018-06-15T07:23:59.036Z,26.33
2018-06-15T07:26:27.669Z,28.07
2018-06-15T07:28:56.778Z,25.83
2018-06-15T07:31:25.324Z,27.20
2018-06-15T07:33:53.993Z,27.03
2018-06-15T07:36:22.712Z,28.83
2018-06-15T07:38:51.207Z,30.37
2018-06-15T07:41:19.699Z,25.23
2018-06-15T07:43:48.158Z,30.03
2018-06-15T07:46:16.653Z,28.90
2018-06-15T07:48:45.161Z,27.07
2018-06-15T07:51:13.884Z,29.50
2018-06-15T07:53:42.381Z,27.23
2018-06-15T07:56:11.209Z,29.50
2018-06-15T07:58:39.695Z,23.30
2018-06-15T08:01:08.207Z,27.27
2018-06-15T08:03:36.883Z,27.67
2018-06-15T08:06:05.530Z,27.53
2018-06-15T08:08:33.995Z,27.83
2018-06-15T08:11:02.214Z,25.67
2018-06-15T08:13:30.716Z,28.17
2018-06-15T08:15:59.241Z,25.13
2018-06-15T08:18:27.735Z,27.67
2018-06-15T08:20:56.267Z,27.07
2018-06-15T08:23:24.743Z,28.63
2018-06-15T08:25:53.257Z,25.40
2018-06-15T08:28:21.743Z,28.90
2018-06-15T08:30:50.254Z,26.50
2018-06-15T08:33:18.727Z,32.00
2018-06-15T08:35:47.393Z,28.00
2018-06-15T08:38:15.955Z,32.63
2018-06-15T08:40:44.404Z,25.90
2018-06-15T08:43:12.921Z,32.23
2018-06-15T08:45:41.431Z,33.83
2018-06-15T08:48:09.987Z,31.40
2018-06-15T08:50:38.873Z,25.93
2018-06-15T08:53:07.387Z,24.13
2018-06-15T08:55:35.981Z,28.57
2018-06-15T08:58:04.632Z,29.63
2018-06-15T09:00:33.127Z,29.43
2018-06-15T09:03:01.798Z,29.83
2018-06-15T09:05:30.336Z,26.97
2018-06-15T09:07:58.528Z,33.00
2018-06-15T09:10:27.035Z,31.17
2018-06-15T09:12:55.541Z,21.83
2018-06-15T09:15:24.222Z,25.30
2018-06-15T09:17:54.116Z,27.33
2018-06-15T09:20:22.671Z,22.27
2018-06-15T09:22:51.567Z,29.37
2018-06-15T09:25:20.093Z,28.73
2018-06-15T09:27:48.704Z,19.87
2018-06-15T09:30:17.197Z,23.20
2018-06-15T09:32:45.803Z,23.13
2018-06-15T09:35:14.340Z,27.57
2018-06-15T09:37:42.836Z,26.73
2018-06-15T09:40:11.652Z,29.93
2018-06-15T09:42:40.125Z,25.47
2018-06-15T09:45:08.630Z,27.73
2018-06-15T09:47:37.134Z,19.80
2018-06-15T09:50:05.681Z,30.90
2018-06-15T09:52:34.416Z,26.63
2018-06-15T09:55:02.666Z,29.07
2018-06-15T09:57:31.793Z,28.57
2018-06-15T10:00:00.117Z,26.23
2018-06-15T10:02:28.593Z,21.57
2018-06-15T10:04:57.250Z,26.73
2018-06-15T10:07:25.717Z,24.93
2018-06-15T10:09:54.386Z,27.40
2018-06-15T10:12:23.017Z,25.37
2018-06-15T10:14:51.513Z,23.07
2018-06-15T10:17:20.095Z,25.37
2018-06-15T10:19:48.734Z,22.93
2018-06-15T10:22:17.445Z,25.70
2018-06-15T10:24:46.019Z,26.70
2018-06-15T10:27:15.148Z,29.63
2018-06-15T10:29:43.671Z,24.23
2018-06-15T10:32:12.228Z,21.00
2018-06-15T10:34:40.752Z,21.33
2018-06-15T10:37:09.253Z,22.20
2018-06-15T10:39:38.038Z,23.33
2018-06-15T10:42:06.576Z,25.00
2018-06-15T10:44:34.917Z,21.40
2018-06-15T10:47:03.436Z,23.27
2018-06-15T10:49:32.029Z,22.67
2018-06-15T10:52:00.580Z,22.93
2018-06-15T10:54:29.084Z,20.27
2018-06-15T10:56:57.601Z,22.03
2018-06-15T10:59:26.087Z,24.67
2018-06-15T11:01:55.162Z,25.30
2018-06-15T11:04:23.678Z,26.33
2018-06-15T11:06:52.218Z,21.27
2018-06-15T11:09:20.713Z,19.10
2018-06-15T11:11:49.198Z,23.43
2018-06-15T11:14:17.968Z,21.37
2018-06-15T11:16:46.490Z,21.03
2018-06-15T11:19:15.004Z,21.10
2018-06-15T11:21:43.568Z,22.73
2018-06-15T11:24:12.203Z,22.83
2018-06-15T11:26:40.778Z,22.17
2018-06-15T11:29:09.526Z,19.80
2018-06-15T11:31:38.053Z,23.87
2018-06-15T11:34:06.753Z,19.70
2018-06-15T11:36:35.294Z,19.23
2018-06-15T11:39:05.152Z,20.80
2018-06-15T11:41:33.677Z,21.57
2018-06-15T11:44:02.185Z,17.87
2018-06-15T11:46:30.874Z,17.53
2018-06-15T11:48:59.385Z,17.70
2018-06-15T11:51:27.961Z,14.57
2018-06-15T11:53:56.506Z,18.77
2018-06-15T11:56:25.608Z,20.23
2018-06-15T11:58:54.081Z,17.57
2018-06-15T12:01:22.621Z,21.07
2018-06-15T12:03:50.969Z,19.50
2018-06-15T12:06:19.433Z,18.97
2018-06-15T12:08:47.957Z,17.73
2018-06-15T12:11:16.466Z,15.90
2018-06-15T12:13:45.195Z,20.73
2018-06-15T12:16:13.737Z,15.83
2018-06-15T12:18:42.248Z,18.13
2018-06-15T12:21:10.852Z,25.77
2018-06-15T12:23:39.346Z,23.80
2018-06-15T12:26:08.142Z,25.83
2018-06-15T12:28:36.652Z,23.67
2018-06-15T12:31:05.197Z,19.80
2018-06-15T12:33:33.748Z,28.10
2018-06-15T12:36:02.507Z,26.13
2018-06-15T12:38:31.052Z,28.43
2018-06-15T12:40:59.602Z,26.13
2018-06-15T12:43:28.150Z,27.03
2018-06-15T12:45:56.950Z,30.37
2018-06-15T12:48:25.780Z,32.80
2018-06-15T12:50:54.624Z,28.80
2018-06-15T12:53:23.150Z,29.83
2018-06-15T12:55:51.978Z,29.33
2018-06-15T12:58:20.675Z,30.47
2018-06-15T13:00:49.212Z,29.80
2018-06-15T13:03:17.768Z,32.73
2018-06-15T13:05:46.616Z,36.47
2018-06-15T13:08:15.793Z,36.47
2018-06-15T13:10:44.321Z,28.03
2018-06-15T13:13:12.888Z,34.73
2018-06-15T13:15:41.409Z,33.83
2018-06-15T13:18:09.956Z,25.73
2018-06-15T13:20:38.570Z,30.63
2018-06-15T13:23:07.204Z,26.73
2018-06-15T13:25:35.895Z,27.50
2018-06-15T13:28:04.583Z,27.37
2018-06-15T13:30:33.576Z,32.80
2018-06-15T13:33:02.126Z,25.97
2018-06-15T13:35:30.655Z,26.27
2018-06-15T13:37:59.146Z,27.10
2018-06-15T13:40:27.720Z,27.70
2018-06-15T13:42:56.526Z,27.33
2018-06-15T13:45:25.575Z,24.10
2018-06-15T13:47:54.116Z,25.13
2018-06-15T13:50:22.667Z,23.73
2018-06-15T13:52:51.291Z,24.90
2018-06-15T13:55:19.809Z,24.73
2018-06-15T13:57:48.467Z,25.43
2018-06-15T14:00:17.094Z,24.27
2018-06-15T14:02:45.560Z,27.17
2018-06-15T14:05:14.549Z,27.40
2018-06-15T14:07:43.013Z,28.07
2018-06-15T14:10:12.376Z,28.73
2018-06-15T14:12:40.929Z,27.60
2018-06-15T14:15:09.473Z,25.30
2018-06-15T14:17:37.992Z,32.60
2018-06-15T14:20:06.550Z,31.13
2018-06-15T14:22:35.027Z,29.30
2018-06-15T14:25:04.225Z,25.53
2018-06-15T14:27:32.938Z,27.13
2018-06-15T14:30:01.468Z,22.63
2018-06-15T14:32:30.098Z,20.73
2018-06-15T14:34:58.646Z,22.00
2018-06-15T14:37:27.172Z,18.17
2018-06-15T14:39:55.707Z,21.83
2018-06-15T14:42:24.232Z,19.17
2018-06-15T14:44:52.874Z,20.87
2018-06-15T14:47:21.619Z,16.70
2018-06-15T14:49:50.205Z,16.47
2018-06-15T14:52:18.930Z,19.90
2018-06-15T14:54:47.477Z,15.80
2018-06-15T14:57:16.275Z,13.30
2018-06-15T14:59:44.791Z,17.13
2018-06-15T15:02:13.359Z,14.43
2018-06-15T15:04:41.876Z,12.90
2018-06-15T15:07:10.640Z,14.10
2018-06-15T15:09:39.312Z,11.47
2018-06-15T15:12:07.999Z,13.57
2018-06-15T15:14:36.514Z,13.40
2018-06-15T15:17:04.762Z,12.10
2018-06-15T15:19:33.300Z,12.73
2018-06-15T15:22:01.891Z,11.60
2018-06-15T15:24:30.451Z,13.47
2018-06-15T15:26:58.988Z,13.33
2018-06-15T15:29:27.539Z,10.63
2018-06-15T15:31:57.640Z,12.70
2018-06-15T15:34:26.134Z,15.10
2018-06-15T15:36:54.720Z,12.43
2018-06-15T15:39:23.268Z,10.33
2018-06-15T15:41:51.793Z,12.03
2018-06-15T15:44:20.541Z,13.63
2018-06-15T15:46:49.100Z,11.00
2018-06-15T15:49:17.793Z,14.83
2018-06-15T15:51:46.361Z,10.80
2018-06-15T15:54:15.147Z,14.20
2018-06-15T15:56:43.737Z,13.93
2018-06-15T15:59:12.228Z,15.00
2018-06-15T16:01:40.723Z,14.23
2018-06-15T16:04:09.477Z,12.30
2018-06-15T16:06:37.987Z,15.10
2018-06-15T16:09:07.428Z,10.53
2018-06-15T16:11:35.959Z,13.27
2018-06-15T16:14:04.861Z,12.30
2018-06-15T16:16:34.282Z,12.10
2018-06-15T16:19:02.823Z,13.13
2018-06-15T16:21:31.364Z,10.63
2018-06-15T16:23:59.920Z,11.57
2018-06-15T16:26:28.544Z,12.17
2018-06-15T16:28:57.092Z,10.33
2018-06-15T16:31:25.663Z,11.60
2018-06-15T16:33:54.224Z,9.60
2018-06-15T16:36:22.837Z,7.87
2018-06-15T16:38:51.574Z,10.53
2018-06-15T16:41:20.138Z,8.43
2018-06-15T16:43:48.647Z,11.73
2018-06-15T16:46:17.199Z,9.80
2018-06-15T16:48:45.892Z,11.53
2018-06-15T16:51:14.439Z,8.37
2018-06-15T16:53:43.220Z,9.67
2018-06-15T16:56:13.024Z,9.03
2018-06-15T16:58:41.526Z,12.13
2018-06-15T17:01:10.361Z,8.43
2018-06-15T17:03:38.933Z,9.07
2018-06-15T17:06:07.439Z,8.73
2018-06-15T17:08:35.992Z,10.50
2018-06-15T17:11:04.534Z,8.60
2018-06-15T17:13:33.057Z,9.03
2018-06-15T17:16:01.256Z,7.57
2018-06-15T17:18:29.774Z,9.93
2018-06-15T17:20:58.318Z,9.37
2018-06-15T17:23:28.084Z,11.07
2018-06-15T17:25:56.590Z,10.30
2018-06-15T17:28:25.105Z,10.33
2018-06-15T17:30:53.604Z,6.93
2018-06-15T17:33:22.108Z,9.80
2018-06-15T17:35:50.631Z,8.57
2018-06-15T17:38:19.157Z,9.20
2018-06-15T17:40:48.181Z,6.33
2018-06-15T17:43:16.705Z,7.60
2018-06-15T17:45:45.421Z,7.47
2018-06-15T17:48:14.083Z,9.67
2018-06-15T17:50:42.570Z,9.67
2018-06-15T17:53:11.115Z,10.03
2018-06-15T17:55:40.559Z,9.80
2018-06-15T17:58:09.117Z,7.00
2018-06-15T18:00:38.096Z,8.50
2018-06-15T18:03:07.045Z,6.23
2018-06-15T18:05:35.779Z,10.30
2018-06-15T18:08:04.654Z,8.60
2018-06-15T18:10:33.316Z,8.00
2018-06-15T18:13:01.846Z,10.20
2018-06-15T18:15:30.416Z,8.47
2018-06-15T18:17:58.931Z,9.33
2018-06-15T18:20:27.495Z,9.87
2018-06-15T18:22:56.004Z,7.77
2018-06-15T18:25:24.521Z,6.53
2018-06-15T18:27:53.022Z,8.07
2018-06-15T18:30:21.753Z,10.67
2018-06-15T18:32:50.280Z,7.73
2018-06-15T18:35:18.776Z,11.20
2018-06-15T18:37:47.294Z,9.83
2018-06-15T18:40:15.831Z,5.97
2018-06-15T18:42:44.341Z,6.17
2018-06-15T18:45:12.921Z,11.80
2018-06-15T18:47:41.574Z,12.03
2018-06-15T18:50:10.608Z,9.97
2018-06-15T18:52:39.372Z,10.50
2018-06-15T18:55:08.533Z,8.00
2018-06-15T18:57:37.008Z,7.10
2018-06-15T19:00:05.743Z,8.27
2018-06-15T19:02:34.316Z,5.30
2018-06-15T19:05:03.177Z,7.30
2018-06-15T19:07:31.753Z,5.27
2018-06-15T19:10:00.410Z,7.40
2018-06-15T19:12:29.016Z,8.10
2018-06-15T19:14:57.713Z,6.33
2018-06-15T19:17:26.240Z,8.27
2018-06-15T19:19:54.836Z,8.10
2018-06-15T19:22:23.320Z,10.13
2018-06-15T19:24:52.162Z,7.67
2018-06-15T19:27:20.679Z,5.47
2018-06-15T19:29:49.167Z,4.40
2018-06-15T19:32:17.474Z,4.77
2018-06-15T19:34:46.066Z,5.17
2018-06-15T19:37:14.638Z,7.13
2018-06-15T19:39:43.223Z,5.53
2018-06-15T19:42:11.771Z,9.47
2018-06-15T19:44:40.332Z,7.13
2018-06-15T19:47:08.780Z,6.77
2018-06-15T19:49:37.300Z,8.10
2018-06-15T19:52:06.072Z,5.87
2018-06-15T19:54:34.557Z,7.87
2018-06-15T19:57:03.087Z,4.63
2018-06-15T19:59:31.655Z,5.80
2018-06-15T20:02:00.176Z,6.70
2018-06-15T20:04:29.538Z,7.83
2018-06-15T20:06:58.032Z,8.23
2018-06-15T20:09:26.541Z,8.33
2018-06-15T20:11:55.298Z,8.67
2018-06-15T20:14:24.145Z,7.83
2018-06-15T20:16:52.977Z,8.83
2018-06-15T20:19:22.050Z,8.30
2018-06-15T20:21:50.780Z,8.20
2018-06-15T20:24:19.363Z,5.57
2018-06-15T20:26:47.868Z,9.60
2018-06-15T20:29:16.389Z,8.50
2018-06-15T20:31:44.906Z,8.93
2018-06-15T20:34:13.466Z,7.60
2018-06-15T20:36:41.993Z,7.07
2018-06-15T20:39:11.416Z,9.13
2018-06-15T20:41:39.941Z,8.97
2018-06-15T20:44:08.640Z,10.90
2018-06-15T20:46:37.270Z,9.10
2018-06-15T20:49:05.851Z,10.27
2018-06-15T20:51:34.362Z,7.03
2018-06-15T20:54:02.879Z,8.43
2018-06-15T20:56:31.622Z,9.13
2018-06-15T20:59:00.146Z,7.53
2018-06-15T21:01:28.914Z,7.80
2018-06-15T21:03:57.512Z,6.67
2018-06-15T21:06:26.190Z,8.50
2018-06-15T21:08:54.808Z,8.80
2018-06-15T21:11:23.306Z,8.17
2018-06-15T21:13:51.973Z,7.90
2018-06-15T21:16:20.642Z,9.23
2018-06-15T21:18:49.156Z,11.83
2018-06-15T21:21:17.701Z,9.47
2018-06-15T21:23:46.211Z,10.13
2018-06-15T21:26:15.649Z,8.73
2018-06-15T21:28:45.434Z,10.80
2018-06-15T21:31:14.019Z,10.40
2018-06-15T21:33:42.566Z,7.97
2018-06-15T21:36:11.080Z,9.40
2018-06-15T21:38:39.585Z,8.37
2018-06-15T21:41:08.658Z,9.50
2018-06-15T21:43:37.194Z,6.73
2018-06-15T21:46:06.047Z,7.50
2018-06-15T21:48:34.722Z,11.00
2018-06-15T21:51:03.693Z,9.10
2018-06-15T21:53:32.265Z,8.37
2018-06-15T21:56:00.925Z,9.20
2018-06-15T21:58:30.131Z,8.10
2018-06-15T22:00:58.652Z,7.33
2018-06-15T22:03:27.757Z,7.47
2018-06-15T22:05:56.416Z,7.07
2018-06-15T22:08:24.969Z,7.70
2018-06-15T22:10:53.507Z,7.27
2018-06-15T22:13:22.236Z,7.37
2018-06-15T22:15:50.734Z,12.80
2018-06-15T22:18:19.343Z,10.17
2018-06-15T22:20:47.898Z,9.50
2018-06-15T22:23:16.424Z,10.27
2018-06-15T22:25:44.988Z,10.13
2018-06-15T22:28:13.500Z,9.23
2018-06-15T22:30:41.986Z,8.43
2018-06-15T22:33:10.167Z,10.90
2018-06-15T22:35:38.806Z,9.67
2018-06-15T22:38:08.398Z,8.70
2018-06-15T22:40:36.894Z,9.93
2018-06-15T22:43:05.519Z,10.10
2018-06-15T22:45:34.259Z,10.60
2018-06-15T22:48:02.728Z,10.57
2018-06-15T22:50:31.507Z,11.87
2018-06-15T22:53:00.182Z,9.90
2018-06-15T22:55:28.662Z,9.20
2018-06-15T22:57:57.306Z,10.67
2018-06-15T23:00:26.846Z,9.23
2018-06-15T23:02:55.554Z,8.83
2018-06-15T23:05:24.065Z,10.40
2018-06-15T23:07:52.776Z,9.50
2018-06-15T23:10:22.226Z,6.97
2018-06-15T23:12:51.369Z,8.40
2018-06-15T23:15:19.856Z,6.37
2018-06-15T23:17:48.338Z,13.40
2018-06-15T23:20:16.918Z,9.03
2018-06-15T23:22:45.481Z,9.00
2018-06-15T23:25:14.186Z,10.03
2018-06-15T23:27:42.652Z,11.90
2018-06-15T23:30:11.148Z,9.73
2018-06-15T23:32:40.020Z,10.77
2018-06-15T23:35:08.341Z,10.33
2018-06-15T23:37:36.905Z,7.73
2018-06-15T23:40:05.692Z,8.67
2018-06-15T23:42:34.805Z,8.97
2018-06-15T23:45:03.471Z,9.07
2018-06-15T23:47:32.483Z,9.03
2018-06-15T23:50:01.422Z,9.00
2018-06-15T23:52:30.668Z,6.80
2018-06-15T23:54:59.167Z,8.30
2018-06-15T23:57:27.711Z,9.03
2018-06-15T23:59:57.181Z,10.53
